createdAt,value
2023-01-19T00:01:07.936Z,3.00
2023-01-19T00:03:39.926Z,3.00
2023-01-19T00:06:12.451Z,3.10
2023-01-19T00:08:46.131Z,3.10
2023-01-19T00:11:18.918Z,3.10
2023-01-19T00:13:51.207Z,3.10
2023-01-19T00:16:23.464Z,3.10
2023-01-19T00:18:55.720Z,3.10
2023-01-19T00:21:27.691Z,3.10
2023-01-19T00:23:59.651Z,3.10
2023-01-19T00:26:31.616Z,3.10
2023-01-19T00:29:04.793Z,3.10
2023-01-19T00:31:37.089Z,3.10
2023-01-19T00:34:09.311Z,3.10
2023-01-19T00:36:41.835Z,3.20
2023-01-19T00:39:14.113Z,3.20
2023-01-19T00:42:04.502Z,3.10
2023-01-19T00:44:36.438Z,3.20
2023-01-19T00:47:08.506Z,3.20
2023-01-19T00:49:40.543Z,3.20
2023-01-19T00:52:12.467Z,3.20
2023-01-19T00:54:44.402Z,3.20
2023-01-19T00:57:19.171Z,3.20
2023-01-19T00:59:51.081Z,3.20
2023-01-19T01:02:23.265Z,3.20
2023-01-19T01:04:56.801Z,3.20
2023-01-19T01:07:30.126Z,3.20
2023-01-19T01:10:02.092Z,3.20
2023-01-19T01:12:33.975Z,3.20
2023-01-19T01:15:09.294Z,3.20
2023-01-19T01:17:47.739Z,3.20
2023-01-19T01:20:25.398Z,3.20
2023-01-19T01:22:58.494Z,3.20
2023-01-19T01:25:31.218Z,3.20
2023-01-19T01:28:07.020Z,3.20
2023-01-19T01:30:41.026Z,3.20
2023-01-19T01:33:13.415Z,3.20
2023-01-19T01:35:45.356Z,3.20
2023-01-19T01:38:17.313Z,3.20
2023-01-19T01:40:49.606Z,3.20
2023-01-19T01:43:21.767Z,3.30
2023-01-19T01:45:55.449Z,3.30
2023-01-19T01:48:31.206Z,3.20
2023-01-19T01:51:26.465Z,3.30
2023-01-19T01:54:10.541Z,3.30
2023-01-19T01:56:47.945Z,3.30
2023-01-19T01:59:40.721Z,3.30
2023-01-19T02:02:40.188Z,3.30
2023-01-19T02:05:17.531Z,3.30
2023-01-19T02:08:15.560Z,3.40
2023-01-19T02:11:07.593Z,3.30
2023-01-19T02:13:46.993Z,3.30
2023-01-19T02:16:19.390Z,3.20
2023-01-19T02:18:52.484Z,3.10
2023-01-19T02:21:58.010Z,3.00
2023-01-19T02:24:31.550Z,2.90
2023-01-19T02:27:05.229Z,2.90
2023-01-19T02:29:37.406Z,2.80
2023-01-19T02:32:09.540Z,2.80
2023-01-19T02:34:41.637Z,2.80
2023-01-19T02:37:18.528Z,2.70
2023-01-19T02:39:59.485Z,2.70
2023-01-19T02:42:47.748Z,2.70
2023-01-19T02:45:23.986Z,2.70
2023-01-19T02:47:57.143Z,2.70
2023-01-19T02:50:37.409Z,2.70
2023-01-19T02:53:24.348Z,2.70
2023-01-19T02:56:46.281Z,2.70
2023-01-19T03:00:01.158Z,2.70
2023-01-19T03:03:32.863Z,2.70
2023-01-19T03:06:45.199Z,2.60
2023-01-19T03:09:46.102Z,2.60
2023-01-19T03:12:38.831Z,2.50
2023-01-19T03:15:23.414Z,2.50
2023-01-19T03:18:00.844Z,2.40
2023-01-19T03:20:32.764Z,2.40
2023-01-19T03:23:11.447Z,2.40
2023-01-19T03:25:47.769Z,2.40
2023-01-19T03:28:24.127Z,2.30
2023-01-19T03:31:19.273Z,2.30
2023-01-19T03:33:59.272Z,2.30
2023-01-19T03:36:54.894Z,2.30
2023-01-19T03:39:28.943Z,2.30
2023-01-19T03:42:11.671Z,2.30
2023-01-19T03:44:46.340Z,2.20
2023-01-19T03:47:20.565Z,2.20
2023-01-19T03:49:54.383Z,2.20
2023-01-19T03:52:36.255Z,2.20
2023-01-19T03:55:09.835Z,2.20
2023-01-19T03:57:41.796Z,2.10
2023-01-19T04:00:14.809Z,2.10
2023-01-19T04:02:46.816Z,2.10
2023-01-19T04:05:19.242Z,2.10
2023-01-19T04:07:52.867Z,2.00
2023-01-19T04:10:25.244Z,2.10
2023-01-19T04:12:59.550Z,2.00
2023-01-19T04:15:32.421Z,2.10
2023-01-19T04:18:05.307Z,2.10
2023-01-19T04:20:37.846Z,2.10
2023-01-19T04:23:09.755Z,2.10
2023-01-19T04:25:41.662Z,2.10
2023-01-19T04:28:13.556Z,2.10
2023-01-19T04:30:45.526Z,2.20
2023-01-19T04:33:17.830Z,2.20
2023-01-19T04:35:54.459Z,2.10
2023-01-19T04:38:27.724Z,2.10
2023-01-19T04:40:59.663Z,2.10
2023-01-19T04:43:31.645Z,2.10
2023-01-19T04:46:03.697Z,2.10
2023-01-19T04:48:35.729Z,2.10
2023-01-19T04:51:08.824Z,2.10
2023-01-19T04:53:40.783Z,2.00
2023-01-19T04:56:12.711Z,2.10
2023-01-19T04:58:44.926Z,2.00
2023-01-19T05:01:16.945Z,2.10
2023-01-19T05:03:48.913Z,2.10
2023-01-19T05:06:20.897Z,2.10
2023-01-19T05:08:52.865Z,2.10
2023-01-19T05:11:24.918Z,2.00
2023-01-19T05:13:56.882Z,2.00
2023-01-19T05:16:28.847Z,2.10
2023-01-19T05:19:01.042Z,2.00
2023-01-19T05:21:33.015Z,2.10
2023-01-19T05:24:05.287Z,2.00
2023-01-19T05:26:37.507Z,2.00
2023-01-19T05:29:10.457Z,2.10
2023-01-19T05:31:42.432Z,2.10
2023-01-19T05:34:14.753Z,2.10
2023-01-19T05:36:46.670Z,2.20
2023-01-19T05:39:18.812Z,2.20
2023-01-19T05:41:50.708Z,2.20
2023-01-19T05:44:23.094Z,2.20
2023-01-19T05:46:55.002Z,2.20
2023-01-19T05:49:27.062Z,2.20
2023-01-19T05:51:59.004Z,2.20
2023-01-19T05:54:31.172Z,2.20
2023-01-19T05:57:04.163Z,2.20
2023-01-19T05:59:36.146Z,2.20
2023-01-19T06:02:08.749Z,2.20
2023-01-19T06:04:40.841Z,2.20
2023-01-19T06:07:12.843Z,2.20
2023-01-19T06:09:44.768Z,2.20
2023-01-19T06:12:16.654Z,2.20
2023-01-19T06:14:48.648Z,2.20
2023-01-19T06:17:20.646Z,2.20
2023-01-19T06:19:52.578Z,2.20
2023-01-19T06:22:24.726Z,2.30
2023-01-19T06:24:56.677Z,2.30
2023-01-19T06:27:28.625Z,2.30
2023-01-19T06:30:00.545Z,2.20
2023-01-19T06:32:32.750Z,2.30
2023-01-19T06:35:06.300Z,2.20
2023-01-19T06:37:38.240Z,2.20
2023-01-19T06:40:13.612Z,2.30
2023-01-19T06:42:46.320Z,2.30
2023-01-19T06:45:18.541Z,2.20
2023-01-19T06:47:50.515Z,2.20
2023-01-19T06:50:22.449Z,2.20
2023-01-19T06:52:54.549Z,2.20
2023-01-19T06:55:28.014Z,2.20
2023-01-19T06:58:00.596Z,2.20
2023-01-19T07:00:32.569Z,2.20
2023-01-19T07:03:08.057Z,2.30
2023-01-19T07:05:40.063Z,2.30
2023-01-19T07:08:12.021Z,2.30
2023-01-19T07:11:25.247Z,2.30
2023-01-19T07:13:38.065Z,2.30
2023-01-19T07:16:13.067Z,2.30
2023-01-19T07:18:45.331Z,2.30
2023-01-19T07:21:18.034Z,2.30
2023-01-19T07:23:52.332Z,2.40
2023-01-19T07:26:25.417Z,2.40
2023-01-19T07:28:57.463Z,2.40
2023-01-19T07:31:29.835Z,2.40
2023-01-19T07:34:01.802Z,2.50
2023-01-19T07:36:33.862Z,2.50
2023-01-19T07:39:05.875Z,2.50
2023-01-19T07:41:37.769Z,2.60
2023-01-19T07:44:09.921Z,2.60
2023-01-19T07:46:43.357Z,2.60
2023-01-19T07:49:15.681Z,2.60
2023-01-19T07:51:47.700Z,2.60
2023-01-19T07:54:20.851Z,2.60
2023-01-19T07:56:56.123Z,2.60
2023-01-19T07:59:32.436Z,2.50
2023-01-19T08:02:04.507Z,2.50
2023-01-19T08:04:36.541Z,2.50
2023-01-19T08:07:09.640Z,2.50
2023-01-19T08:09:41.606Z,2.50
2023-01-19T08:12:13.566Z,2.40
2023-01-19T08:14:45.516Z,2.40
2023-01-19T08:17:17.420Z,2.40
2023-01-19T08:19:49.373Z,2.40
2023-01-19T08:22:21.373Z,2.40
2023-01-19T08:24:54.933Z,2.40
2023-01-19T08:27:26.955Z,2.40
2023-01-19T08:29:59.255Z,2.40
2023-01-19T08:32:31.202Z,2.40
2023-01-19T08:35:03.407Z,2.50
2023-01-19T08:37:35.327Z,2.50
2023-01-19T08:40:08.601Z,2.50
2023-01-19T08:42:40.487Z,2.50
2023-01-19T08:45:12.683Z,2.50
2023-01-19T08:47:44.875Z,2.50
2023-01-19T08:50:17.133Z,2.50
2023-01-19T08:52:49.094Z,2.50
2023-01-19T08:55:21.109Z,2.50
2023-01-19T08:57:58.153Z,2.50
2023-01-19T09:00:31.816Z,2.50
2023-01-19T09:03:06.522Z,2.50
2023-01-19T09:05:39.140Z,2.50
2023-01-19T09:08:14.664Z,2.50
2023-01-19T09:10:50.144Z,2.50
2023-01-19T09:13:22.206Z,2.50
2023-01-19T09:15:54.287Z,2.50
2023-01-19T09:18:26.211Z,2.50
2023-01-19T09:20:58.346Z,2.50
2023-01-19T09:23:30.653Z,2.60
2023-01-19T09:26:05.413Z,2.60
2023-01-19T09:28:38.895Z,2.60
2023-01-19T09:31:11.100Z,2.70
2023-01-19T09:33:43.077Z,2.80
2023-01-19T09:36:15.390Z,2.90
2023-01-19T09:38:47.402Z,2.90
2023-01-19T09:41:25.090Z,2.90
2023-01-19T09:44:01.195Z,3.00
2023-01-19T09:46:42.141Z,3.00
2023-01-19T09:49:41.206Z,3.10
2023-01-19T09:52:15.703Z,3.30
2023-01-19T09:54:56.551Z,3.60
2023-01-19T09:57:30.379Z,4.10
2023-01-19T10:00:10.808Z,4.40
2023-01-19T10:03:16.572Z,4.70
2023-01-19T10:06:10.563Z,4.90
2023-01-19T10:09:05.699Z,5.20
2023-01-19T10:11:53.690Z,5.40
2023-01-19T10:14:43.210Z,5.50
2023-01-19T10:18:15.965Z,5.70
2023-01-19T10:21:10.920Z,5.60
2023-01-19T10:23:58.575Z,5.50
2023-01-19T10:26:54.272Z,5.40
2023-01-19T10:29:38.748Z,5.40
2023-01-19T10:32:23.182Z,5.60
2023-01-19T10:34:55.779Z,5.90
2023-01-19T10:37:44.795Z,6.20
2023-01-19T10:40:43.117Z,6.40
2023-01-19T10:43:33.872Z,6.50
2023-01-19T10:46:17.332Z,6.60
2023-01-19T10:48:52.618Z,6.70
2023-01-19T10:51:24.832Z,6.90
2023-01-19T10:54:03.513Z,7.10
2023-01-19T10:56:38.723Z,7.40
2023-01-19T10:59:31.798Z,7.70
2023-01-19T11:02:17.944Z,8.10
2023-01-19T11:04:53.181Z,8.30
2023-01-19T11:07:33.757Z,8.30
2023-01-19T11:10:17.508Z,8.10
2023-01-19T11:13:12.769Z,8.00
2023-01-19T11:15:59.720Z,7.90
2023-01-19T11:18:39.931Z,8.00
2023-01-19T11:21:15.714Z,8.00
2023-01-19T11:23:52.912Z,8.10
2023-01-19T11:26:40.798Z,8.30
2023-01-19T11:29:26.372Z,8.50
2023-01-19T11:32:18.489Z,8.70
2023-01-19T11:34:50.582Z,8.90
2023-01-19T11:37:28.778Z,9.10
2023-01-19T11:40:05.507Z,9.20
2023-01-19T11:42:38.509Z,9.30
2023-01-19T11:45:19.183Z,9.50
2023-01-19T11:47:52.650Z,9.70
2023-01-19T11:50:28.505Z,9.90
2023-01-19T11:53:30.291Z,10.00
2023-01-19T11:56:13.467Z,10.10
2023-01-19T12:07:50.273Z,10.50
2023-01-19T12:10:33.825Z,10.30
2023-01-19T12:13:05.935Z,9.90
2023-01-19T12:15:44.571Z,9.40
2023-01-19T12:18:24.434Z,9.00
2023-01-19T12:20:58.803Z,8.60
2023-01-19T12:23:46.082Z,8.50
2023-01-19T12:26:49.563Z,8.30
2023-01-19T12:29:26.896Z,8.20
2023-01-19T12:32:39.240Z,8.20
2023-01-19T12:35:54.842Z,7.90
2023-01-19T12:38:57.317Z,7.70
2023-01-19T12:41:39.159Z,7.70
2023-01-19T12:44:11.339Z,7.80
2023-01-19T12:46:54.571Z,7.90
2023-01-19T12:49:40.537Z,8.10
2023-01-19T12:52:24.735Z,8.40
2023-01-19T12:55:14.675Z,8.70
2023-01-19T12:58:04.237Z,8.90
2023-01-19T13:00:45.547Z,9.10
2023-01-19T13:03:17.476Z,9.10
2023-01-19T13:05:58.694Z,9.10
2023-01-19T13:08:59.638Z,9.00
2023-01-19T13:11:34.582Z,8.70
2023-01-19T13:14:37.340Z,8.10
2023-01-19T13:17:33.602Z,7.50
2023-01-19T13:23:26.358Z,6.40
2023-01-19T13:26:14.959Z,6.20
2023-01-19T13:29:06.989Z,6.20
2023-01-19T13:31:42.865Z,6.50
2023-01-19T13:34:25.770Z,6.90
2023-01-19T13:36:59.736Z,7.20
2023-01-19T13:39:44.528Z,7.20
2023-01-19T13:42:33.415Z,7.20
2023-01-19T13:45:37.183Z,7.30
2023-01-19T13:48:17.888Z,7.40
2023-01-19T13:51:05.081Z,7.50
2023-01-19T13:53:37.320Z,7.50
2023-01-19T13:56:20.919Z,7.50
2023-01-19T13:59:05.198Z,7.90
2023-01-19T14:01:44.015Z,8.40
2023-01-19T14:04:34.194Z,8.10
2023-01-19T14:07:23.621Z,7.50
2023-01-19T14:10:09.483Z,6.90
2023-01-19T14:12:58.153Z,6.60
2023-01-19T14:15:35.438Z,6.70
2023-01-19T14:18:17.925Z,6.60
2023-01-19T14:21:03.996Z,6.40
2023-01-19T14:23:55.187Z,6.10
2023-01-19T14:26:54.752Z,6.00
2023-01-19T14:29:33.276Z,5.80
2023-01-19T14:32:21.941Z,5.70
2023-01-19T14:35:05.838Z,5.60
2023-01-19T14:37:52.520Z,5.40
2023-01-19T14:40:25.335Z,5.40
2023-01-19T14:43:06.325Z,5.30
2023-01-19T14:45:47.662Z,5.20
2023-01-19T14:48:22.395Z,5.10
2023-01-19T14:51:06.063Z,5.10
2023-01-19T14:53:49.911Z,5.00
2023-01-19T14:56:35.810Z,4.90
2023-01-19T14:59:14.214Z,4.80
2023-01-19T15:01:46.801Z,4.70
2023-01-19T15:04:19.275Z,4.60
2023-01-19T15:06:56.806Z,4.60
2023-01-19T15:09:30.319Z,4.60
2023-01-19T15:12:03.140Z,4.50
2023-01-19T15:14:39.258Z,4.50
2023-01-19T15:17:25.547Z,4.50
2023-01-19T15:19:58.077Z,4.50
2023-01-19T15:22:34.345Z,4.50
2023-01-19T15:25:17.803Z,4.50
2023-01-19T15:27:58.544Z,4.50
2023-01-19T15:30:52.377Z,4.50
2023-01-19T15:33:42.782Z,4.40
2023-01-19T15:36:18.600Z,4.40
2023-01-19T15:38:54.163Z,4.40
2023-01-19T15:41:38.633Z,4.40
2023-01-19T15:44:15.739Z,4.30
2023-01-19T15:46:53.867Z,4.30
2023-01-19T15:49:27.687Z,4.30
2023-01-19T15:52:02.933Z,4.20
2023-01-19T15:54:41.315Z,4.30
2023-01-19T15:57:17.492Z,4.30
2023-01-19T15:59:53.729Z,4.40
2023-01-19T16:02:35.483Z,4.40
2023-01-19T16:05:08.649Z,4.40
2023-01-19T16:07:43.525Z,4.30
2023-01-19T16:10:17.568Z,4.30
2023-01-19T16:12:53.407Z,4.30
2023-01-19T16:15:28.596Z,4.30
2023-01-19T16:18:01.129Z,4.40
2023-01-19T16:20:33.755Z,4.40
2023-01-19T16:23:14.972Z,4.40
2023-01-19T16:26:01.258Z,4.40
2023-01-19T16:28:37.590Z,4.40
2023-01-19T16:31:09.877Z,4.40
2023-01-19T16:33:45.992Z,4.50
2023-01-19T16:36:24.535Z,4.50
2023-01-19T16:39:04.142Z,4.50
2023-01-19T16:41:38.011Z,4.50
2023-01-19T16:44:17.165Z,4.50
2023-01-19T16:46:55.374Z,4.40
2023-01-19T16:49:28.565Z,4.40
2023-01-19T16:52:01.603Z,4.30
2023-01-19T16:54:34.474Z,4.30
2023-01-19T16:57:06.848Z,4.20
2023-01-19T16:59:40.002Z,4.20
2023-01-19T17:02:12.621Z,4.20
2023-01-19T17:04:44.876Z,4.10
2023-01-19T17:07:19.080Z,4.10
2023-01-19T17:09:52.620Z,4.00
2023-01-19T17:12:25.089Z,4.00
2023-01-19T17:14:57.311Z,3.90
2023-01-19T17:17:38.334Z,3.90
2023-01-19T17:20:11.726Z,3.80
2023-01-19T17:22:49.793Z,3.70
2023-01-19T17:25:47.299Z,3.70
2023-01-19T17:28:20.991Z,3.70
2023-01-19T17:30:54.026Z,3.70
2023-01-19T17:33:26.307Z,3.60
2023-01-19T17:36:18.007Z,3.60
2023-01-19T17:44:14.646Z,3.60
2023-01-19T17:46:52.763Z,3.50
2023-01-19T17:49:30.519Z,3.50
2023-01-19T17:52:14.120Z,3.50
2023-01-19T17:54:56.486Z,3.50
2023-01-19T17:57:29.684Z,3.50
2023-01-19T18:01:07.973Z,3.40
2023-01-19T18:07:57.094Z,3.40
2023-01-19T18:11:13.940Z,3.40
2023-01-19T18:17:54.108Z,3.40
2023-01-19T18:21:08.968Z,3.30
2023-01-19T18:28:39.812Z,3.30
2023-01-19T18:31:30.381Z,3.20
2023-01-19T18:35:06.941Z,3.30
2023-01-19T18:37:59.220Z,3.20
2023-01-19T18:40:33.610Z,3.20
2023-01-19T18:43:15.568Z,3.20
2023-01-19T18:46:03.755Z,3.20
2023-01-19T18:48:59.193Z,3.20
2023-01-19T18:51:35.686Z,3.10
2023-01-19T18:54:16.097Z,3.10
2023-01-19T18:56:53.813Z,3.10
2023-01-19T18:59:29.160Z,3.00
2023-01-19T19:02:08.283Z,3.00
2023-01-19T19:05:06.796Z,2.90
2023-01-19T19:10:37.218Z,2.80
2023-01-19T19:13:13.118Z,2.80
2023-01-19T19:15:46.066Z,2.80
2023-01-19T19:18:24.476Z,2.80
2023-01-19T19:21:01.250Z,2.80
2023-01-19T19:23:34.683Z,2.80
2023-01-19T19:26:11.783Z,2.80
2023-01-19T19:31:40.037Z,2.80
2023-01-19T19:34:13.855Z,2.80
2023-01-19T19:36:54.797Z,2.80
2023-01-19T19:39:31.996Z,2.80
2023-01-19T19:42:04.415Z,2.70
2023-01-19T19:44:39.307Z,2.70
2023-01-19T19:47:11.558Z,2.70
2023-01-19T19:49:56.723Z,2.70
2023-01-19T19:52:29.306Z,2.60
2023-01-19T19:58:08.583Z,2.60
2023-01-19T20:00:53.939Z,2.60
2023-01-19T20:03:30.911Z,2.50
2023-01-19T20:06:08.117Z,2.50
2023-01-19T20:08:41.638Z,2.50
2023-01-19T20:11:18.018Z,2.50
2023-01-19T20:13:53.941Z,2.50
2023-01-19T20:16:28.421Z,2.50
2023-01-19T20:19:04.449Z,2.40
2023-01-19T20:21:41.934Z,2.40
2023-01-19T20:24:24.346Z,2.40
2023-01-19T20:27:00.979Z,2.40
2023-01-19T20:29:35.507Z,2.40
2023-01-19T20:32:10.876Z,2.40
2023-01-19T20:34:43.417Z,2.40
2023-01-19T20:37:15.516Z,2.40
2023-01-19T20:39:56.812Z,2.40
2023-01-19T20:42:29.066Z,2.40
2023-01-19T20:45:04.511Z,2.40
2023-01-19T20:47:36.574Z,2.40
2023-01-19T20:50:12.109Z,2.50
2023-01-19T20:52:49.742Z,2.50
2023-01-19T20:55:21.959Z,2.50
2023-01-19T20:57:54.157Z,2.50
2023-01-19T21:00:26.832Z,2.40
2023-01-19T21:03:03.001Z,2.40
2023-01-19T21:05:36.763Z,2.40
2023-01-19T21:08:09.344Z,2.40
2023-01-19T21:10:54.959Z,2.40
2023-01-19T21:13:33.763Z,2.30
2023-01-19T21:16:17.183Z,2.30
2023-01-19T21:18:59.808Z,2.30
2023-01-19T21:21:35.024Z,2.30
2023-01-19T21:24:07.642Z,2.30
2023-01-19T21:26:42.021Z,2.30
2023-01-19T21:29:16.780Z,2.40
2023-01-19T21:31:52.689Z,2.40
2023-01-19T21:34:24.996Z,2.40
2023-01-19T21:36:57.175Z,2.40
2023-01-19T21:39:31.913Z,2.40
2023-01-19T21:42:11.859Z,2.40
2023-01-19T21:44:44.233Z,2.40
2023-01-19T21:47:16.600Z,2.40
2023-01-19T21:49:52.759Z,2.40
2023-01-19T21:52:25.238Z,2.50
2023-01-19T21:55:14.732Z,2.50
2023-01-19T21:57:49.948Z,2.50
2023-01-19T22:00:22.323Z,2.50
2023-01-19T22:03:03.732Z,2.50
2023-01-19T22:05:37.459Z,2.60
2023-01-19T22:08:09.756Z,2.60
2023-01-19T22:10:41.874Z,2.60
2023-01-19T22:13:14.286Z,2.60
2023-01-19T22:15:46.664Z,2.60
2023-01-19T22:18:21.732Z,2.60
2023-01-19T22:20:54.093Z,2.60
2023-01-19T22:23:29.246Z,2.70
2023-01-19T22:26:01.738Z,2.70
2023-01-19T22:28:37.978Z,2.70
2023-01-19T22:31:17.485Z,2.70
2023-01-19T22:33:51.559Z,2.70
2023-01-19T22:36:35.836Z,2.70
2023-01-19T22:39:11.567Z,2.70
2023-01-19T22:41:47.312Z,2.70
2023-01-19T22:44:27.469Z,2.70
2023-01-19T22:47:08.634Z,2.70
2023-01-19T22:49:40.952Z,2.70
2023-01-19T22:52:15.331Z,2.70
2023-01-19T22:54:52.410Z,2.70
2023-01-19T22:57:27.757Z,2.70
2023-01-19T23:02:46.286Z,2.70
2023-01-19T23:05:18.400Z,2.70
2023-01-19T23:07:51.170Z,2.70
2023-01-19T23:10:23.231Z,2.70
2023-01-19T23:12:55.505Z,2.80
2023-01-19T23:15:27.485Z,2.70
2023-01-19T23:17:59.935Z,2.70
2023-01-19T23:20:32.049Z,2.70
2023-01-19T23:23:07.144Z,2.70
2023-01-19T23:25:39.201Z,2.70
2023-01-19T23:28:11.259Z,2.70
2023-01-19T23:30:43.401Z,2.70
2023-01-19T23:33:15.575Z,2.60
2023-01-19T23:35:47.670Z,2.60
2023-01-19T23:38:21.662Z,2.60
2023-01-19T23:40:57.942Z,2.60
2023-01-19T23:43:30.209Z,2.60
2023-01-19T23:46:04.739Z,2.60
2023-01-19T23:48:37.159Z,2.60
2023-01-19T23:51:11.593Z,2.60
2023-01-19T23:53:44.174Z,2.60
2023-01-19T23:56:24.481Z,2.60
2023-01-19T23:59:09.077Z,2.60
